Norwich, Kansas
Current Conditions -  °F | °C
As of 4:53 PM on Monday 22 Dec 2014 (Local Time) from KICT Reporting Station
Scattered Clouds Scattered Clouds  
Wind Chill: 51°   Ceiling: Unl
Heat Index: 51°   Visibility: 10mi
Dew Point: 35°   Wind: 7mph
Humidity: 54%   Direction: 300°WNW
Pressure: 29.55"   Gusts: NA
Location:  37.46°N, 97.85°W
Report Text: KICT 222253Z 30006KT 10SM FEW040 FEW060 SCT090 SCT250 11/02 A2955 RMK AO2 SLP007 T01060017
Loading
Personal Weather Stations






























Interactive Weather Map New forecast layout! Learn more

10-Day Weather Forecast

Advertisements
Track Severe Weather on mobile